Time;durP1;ratioP1;P1;durP2;ratioP2;P2;SDS_P1;SDS_P2;PMS_P1;PMS_P2;Temp;Humidity;BMP_temperature;BMP_pressure;BME280_temperature;BME280_humidity;BME280_pressure;Samples;Min_cycle;Max_cycle;Signal;HPM_P1;HPM_P2
2024/01/27 00:01:56;;;;;;;36.53;34.92;;;;;;;;;;4215055;28;20040;-62
2024/01/27 00:03:58;;;;;;;36.07;34.60;;;;;;;;;;4215090;28;20052;-62
2024/01/27 00:06:03;;;;;;;36.10;34.60;;;;;;;;;;4215294;28;20119;-62
2024/01/27 00:08:05;;;;;;;35.55;34.05;;;;;;;;;;4197198;28;20048;-62
2024/01/27 00:10:07;;;;;;;36.42;34.85;;;;;;;;;;4200143;28;20040;-62
2024/01/27 00:12:08;;;;;;;36.20;34.63;;;;;;;;;;4215011;28;20070;-62
2024/01/27 00:14:10;;;;;;;37.60;35.85;;;;;;;;;;4214913;28;20127;-62
2024/01/27 00:16:12;;;;;;;39.88;37.95;;;;;;;;;;4214865;28;20040;-62
2024/01/27 00:18:15;;;;;;;39.58;37.47;;;;;;;;;;4214802;28;20067;-62
2024/01/27 00:20:17;;;;;;;36.25;34.65;;;;;;;;;;4214757;28;20055;-62
2024/01/27 00:22:21;;;;;;;37.92;36.22;;;;;;;;;;4214130;28;20071;-62
2024/01/27 00:24:22;;;;;;;38.17;36.38;;;;;;;;;;4214635;28;20391;-63
2024/01/27 00:26:24;;;;;;;36.10;34.55;;;;;;;;;;4215104;28;20047;-64
2024/01/27 00:28:26;;;;;;;41.50;38.90;;;;;;;;;;4214938;28;20036;-64
2024/01/27 00:30:27;;;;;;;38.90;37.15;;;;;;;;;;4214628;28;20063;-64
2024/01/27 00:32:30;;;;;;;39.92;37.80;;;;;;;;;;4213712;28;20127;-64
2024/01/27 00:34:32;;;;;;;;;;;;;;;;;;4198473;28;20079;-64
2024/01/27 00:36:36;;;;;;;38.45;36.33;;;;;;;;;;4197780;28;19928;-64
2024/01/27 00:38:38;;;;;;;38.55;36.75;;;;;;;;;;4197635;28;20566;-64
2024/01/27 00:40:40;;;;;;;37.33;35.42;;;;;;;;;;4197502;28;20056;-65
2024/01/27 00:42:42;;;;;;;37.17;35.60;;;;;;;;;;4197490;28;20044;-64
2024/01/27 00:44:43;;;;;;;40.72;38.50;;;;;;;;;;4197710;28;20308;-64
2024/01/27 00:46:45;;;;;;;41.28;38.90;;;;;;;;;;4197924;28;20037;-62
2024/01/27 00:48:47;;;;;;;43.60;41.15;;;;;;;;;;4209412;28;20040;-62
2024/01/27 00:50:49;;;;;;;40.58;38.40;;;;;;;;;;4214339;28;20032;-62
2024/01/27 00:52:50;;;;;;;40.28;38.17;;;;;;;;;;4214328;28;20052;-62
2024/01/27 00:54:52;;;;;;;41.25;39.17;;;;;;;;;;4214280;28;20093;-62
2024/01/27 00:56:56;;;;;;;40.65;38.45;;;;;;;;;;4214432;28;20377;-62
2024/01/27 00:58:58;;;;;;;40.92;38.80;;;;;;;;;;4214460;28;20044;-62
2024/01/27 01:00:59;;;;;;;39.40;37.28;;;;;;;;;;4214206;28;20040;-62
2024/01/27 01:03:02;;;;;;;41.67;39.35;;;;;;;;;;4208617;28;20051;-62
2024/01/27 01:05:04;;;;;;;40.53;38.22;;;;;;;;;;4197442;28;20036;-62
2024/01/27 01:07:06;;;;;;;41.00;38.95;;;;;;;;;;4205397;28;20105;-62
2024/01/27 01:09:08;;;;;;;38.33;36.42;;;;;;;;;;4214073;28;20113;-62
2024/01/27 01:11:10;;;;;;;38.67;36.65;;;;;;;;;;4213564;28;20040;-62
2024/01/27 01:13:12;;;;;;;40.00;37.70;;;;;;;;;;4214020;28;20047;-62
2024/01/27 01:15:13;;;;;;;38.35;36.35;;;;;;;;;;4213396;28;20040;-62
2024/01/27 01:17:15;;;;;;;41.50;39.13;;;;;;;;;;4213383;28;20123;-62
2024/01/27 01:19:17;;;;;;;38.38;36.72;;;;;;;;;;4213661;28;20282;-62
2024/01/27 01:21:18;;;;;;;44.80;42.00;;;;;;;;;;4213783;28;20059;-62
2024/01/27 01:23:20;;;;;;;45.25;42.05;;;;;;;;;;4213652;28;20280;-62
2024/01/27 01:25:22;;;;;;;43.33;41.05;;;;;;;;;;4214100;28;20085;-62
2024/01/27 01:27:23;;;;;;;41.42;39.40;;;;;;;;;;4213798;28;20043;-62
2024/01/27 01:29:25;;;;;;;43.05;40.70;;;;;;;;;;4214057;28;20494;-62
2024/01/27 01:31:34;;;;;;;38.97;36.97;;;;;;;;;;4214043;28;20036;-63
2024/01/27 01:33:36;;;;;;;42.33;39.95;;;;;;;;;;4203464;28;20040;-63
2024/01/27 01:35:38;;;;;;;41.80;39.40;;;;;;;;;;4197155;28;20041;-62
2024/01/27 01:37:39;;;;;;;39.97;37.87;;;;;;;;;;4197288;28;20289;-64
2024/01/27 01:39:41;;;;;;;40.78;38.53;;;;;;;;;;4196092;28;20405;-64
2024/01/27 01:41:42;;;;;;;39.65;37.75;;;;;;;;;;4196784;28;20055;-64
2024/01/27 01:43:44;;;;;;;38.67;36.87;;;;;;;;;;4197131;28;20036;-64
2024/01/27 01:45:46;;;;;;;40.97;38.70;;;;;;;;;;4197051;28;20758;-64
2024/01/27 01:47:48;;;;;;;39.83;37.72;;;;;;;;;;4200198;28;20037;-64
2024/01/27 01:49:50;;;;;;;41.40;39.28;;;;;;;;;;4212376;28;20048;-64
2024/01/27 01:51:52;;;;;;;41.20;39.00;;;;;;;;;;4213853;28;20475;-64
2024/01/27 01:53:56;;;;;;;40.77;38.50;;;;;;;;;;4213815;28;20040;-64
2024/01/27 01:55:58;;;;;;;41.70;39.38;;;;;;;;;;4213695;28;20048;-64
2024/01/27 01:58:02;;;;;;;41.72;39.28;;;;;;;;;;4212754;28;20495;-64
2024/01/27 02:00:04;;;;;;;42.00;39.80;;;;;;;;;;4201321;28;20488;-64
2024/01/27 02:02:06;;;;;;;39.40;37.55;;;;;;;;;;4196717;28;20291;-64
2024/01/27 02:04:08;;;;;;;42.90;40.38;;;;;;;;;;4211612;28;20514;-64
2024/01/27 02:06:09;;;;;;;41.42;39.35;;;;;;;;;;4213523;28;20037;-64
2024/01/27 02:08:11;;;;;;;44.03;41.45;;;;;;;;;;4213754;28;20048;-64
2024/01/27 02:10:15;;;;;;;42.00;39.58;;;;;;;;;;4213720;28;20044;-64
2024/01/27 02:12:17;;;;;;;40.45;38.28;;;;;;;;;;4213738;28;20043;-64
2024/01/27 02:14:19;;;;;;;42.75;40.25;;;;;;;;;;4213411;28;20089;-64
2024/01/27 02:16:21;;;;;;;43.23;40.63;;;;;;;;;;4213472;28;20139;-64
2024/01/27 02:18:23;;;;;;;40.92;38.65;;;;;;;;;;4212294;28;20684;-64
2024/01/27 02:20:24;;;;;;;42.50;40.03;;;;;;;;;;4213292;28;20040;-64
2024/01/27 02:22:26;;;;;;;43.38;40.65;;;;;;;;;;4213300;28;20040;-64
2024/01/27 02:24:28;;;;;;;42.83;40.13;;;;;;;;;;4213676;28;20555;-64
2024/01/27 02:26:30;;;;;;;44.00;41.55;;;;;;;;;;4213355;28;20051;-64
2024/01/27 02:28:33;;;;;;;43.92;41.20;;;;;;;;;;4213275;28;20047;-64
2024/01/27 02:30:34;;;;;;;40.97;38.67;;;;;;;;;;4213646;28;20040;-64
2024/01/27 02:32:36;;;;;;;44.47;41.72;;;;;;;;;;4211463;28;20051;-64
2024/01/27 02:34:38;;;;;;;42.33;39.73;;;;;;;;;;4196692;28;20041;-64
2024/01/27 02:36:40;;;;;;;45.60;43.00;;;;;;;;;;4196616;28;20044;-64
2024/01/27 02:38:41;;;;;;;41.40;39.00;;;;;;;;;;4196420;28;20061;-64
2024/01/27 02:40:43;;;;;;;43.38;40.83;;;;;;;;;;4196408;28;20074;-64
2024/01/27 02:42:45;;;;;;;45.05;42.22;;;;;;;;;;4196389;28;20040;-64
2024/01/27 02:44:46;;;;;;;42.75;40.13;;;;;;;;;;4196696;28;20063;-64
2024/01/27 02:46:48;;;;;;;42.60;39.95;;;;;;;;;;4198424;28;20090;-64
2024/01/27 02:48:50;;;;;;;42.42;39.85;;;;;;;;;;4211823;28;20044;-64
2024/01/27 02:50:51;;;;;;;42.17;39.67;;;;;;;;;;4216225;28;20050;-64
2024/01/27 02:52:53;;;;;;;41.95;39.47;;;;;;;;;;4216260;28;20456;-64
2024/01/27 02:54:55;;;;;;;43.90;41.30;;;;;;;;;;4215622;28;20046;-64
2024/01/27 02:56:57;;;;;;;41.92;39.60;;;;;;;;;;4199392;28;20416;-64
2024/01/27 02:58:59;;;;;;;45.27;42.27;;;;;;;;;;4202399;28;20032;-64
2024/01/27 03:01:00;;;;;;;44.17;41.50;;;;;;;;;;4216419;28;20377;-64
2024/01/27 03:03:02;;;;;;;43.22;40.50;;;;;;;;;;4216030;28;20481;-64
2024/01/27 03:05:04;;;;;;;43.42;40.50;;;;;;;;;;4216163;28;20067;-64
2024/01/27 03:07:06;;;;;;;44.22;41.75;;;;;;;;;;4216067;28;20047;-64
2024/01/27 03:09:07;;;;;;;43.07;40.67;;;;;;;;;;4216123;28;20086;-64
2024/01/27 03:11:09;;;;;;;44.60;42.10;;;;;;;;;;4216065;28;20036;-64
2024/01/27 03:13:11;;;;;;;43.30;40.90;;;;;;;;;;4216080;28;20040;-64
2024/01/27 03:15:12;;;;;;;41.22;38.90;;;;;;;;;;4216231;28;20048;-64
2024/01/27 03:17:17;;;;;;;42.47;39.90;;;;;;;;;;4214656;28;20043;-64
2024/01/27 03:19:18;;;;;;;42.60;40.05;;;;;;;;;;4216091;28;20373;-64
2024/01/27 03:21:20;;;;;;;39.72;37.45;;;;;;;;;;4215839;28;20052;-64
2024/01/27 03:23:22;;;;;;;41.70;39.27;;;;;;;;;;4216070;28;20574;-64
2024/01/27 03:25:25;;;;;;;41.38;39.13;;;;;;;;;;4215749;28;20433;-64
2024/01/27 03:27:27;;;;;;;42.97;40.60;;;;;;;;;;4215958;28;20046;-64
2024/01/27 03:29:29;;;;;;;40.05;37.83;;;;;;;;;;4215819;28;20811;-64
2024/01/27 03:31:31;;;;;;;40.03;38.07;;;;;;;;;;4215577;28;20449;-64
2024/01/27 03:33:33;;;;;;;;;;;;;;;;;;4206466;28;20048;-64
2024/01/27 03:35:34;;;;;;;42.05;39.72;;;;;;;;;;4199091;28;19928;-64
2024/01/27 03:37:36;;;;;;;42.33;40.08;;;;;;;;;;4199102;28;20036;-64
2024/01/27 03:39:40;;;;;;;42.88;40.58;;;;;;;;;;4212487;28;20537;-64
2024/01/27 03:41:42;;;;;;;38.45;36.38;;;;;;;;;;4215354;28;20048;-64
2024/01/27 03:43:44;;;;;;;44.23;41.70;;;;;;;;;;4215651;28;20044;-64
2024/01/27 03:45:45;;;;;;;40.97;38.53;;;;;;;;;;4215461;28;20369;-64
2024/01/27 03:47:47;;;;;;;42.40;40.22;;;;;;;;;;4215457;28;20028;-64
2024/01/27 03:49:51;;;;;;;38.13;36.10;;;;;;;;;;4214412;28;20031;-64
2024/01/27 03:51:54;;;;;;;41.08;39.22;;;;;;;;;;4215041;28;20034;-64
2024/01/27 03:53:56;;;;;;;40.10;38.10;;;;;;;;;;4215339;28;20068;-64
2024/01/27 03:56:04;;;;;;;41.80;39.50;;;;;;;;;;4215149;28;20730;-64
2024/01/27 03:58:06;;;;;;;39.40;37.50;;;;;;;;;;4215278;28;20526;-62
2024/01/27 04:00:08;;;;;;;39.73;37.67;;;;;;;;;;4214970;28;20036;-62
2024/01/27 04:02:09;;;;;;;37.92;35.97;;;;;;;;;;4215156;28;20222;-62
2024/01/27 04:04:11;;;;;;;37.60;35.83;;;;;;;;;;4215258;28;20062;-62
2024/01/27 04:06:13;;;;;;;39.13;37.40;;;;;;;;;;4215444;28;20040;-62
2024/01/27 04:08:14;;;;;;;38.63;36.77;;;;;;;;;;4215152;28;20274;-62
2024/01/27 04:10:17;;;;;;;39.65;37.80;;;;;;;;;;4215250;28;20044;-62
2024/01/27 04:12:19;;;;;;;39.47;37.25;;;;;;;;;;4215099;28;20032;-62
2024/01/27 04:14:21;;;;;;;37.30;35.63;;;;;;;;;;4215034;28;20040;-62
2024/01/27 04:16:22;;;;;;;39.80;38.03;;;;;;;;;;4214938;28;20040;-63
2024/01/27 04:18:24;;;;;;;40.58;38.58;;;;;;;;;;4214938;28;20067;-61
2024/01/27 04:20:28;;;;;;;39.10;37.30;;;;;;;;;;4214796;28;20074;-62
2024/01/27 04:22:29;;;;;;;40.72;38.42;;;;;;;;;;4214718;28;20036;-62
2024/01/27 04:24:31;;;;;;;40.63;38.58;;;;;;;;;;4215066;28;20043;-63
2024/01/27 04:26:33;;;;;;;44.30;41.83;;;;;;;;;;4214923;28;20126;-62
2024/01/27 04:28:34;;;;;;;39.20;37.20;;;;;;;;;;4214713;28;20149;-62
2024/01/27 04:30:36;;;;;;;39.30;37.25;;;;;;;;;;4214586;28;20066;-62
2024/01/27 04:32:38;;;;;;;39.30;37.35;;;;;;;;;;4212810;28;20043;-62
2024/01/27 04:34:40;;;;;;;40.10;38.28;;;;;;;;;;4198183;28;20067;-62
2024/01/27 04:36:42;;;;;;;40.03;38.13;;;;;;;;;;4197857;28;20124;-62
2024/01/27 04:38:43;;;;;;;39.77;37.90;;;;;;;;;;4197748;28;20056;-62
2024/01/27 04:40:48;;;;;;;40.00;37.97;;;;;;;;;;4197474;28;20044;-62
2024/01/27 04:42:50;;;;;;;39.92;37.80;;;;;;;;;;4197541;28;20528;-62
2024/01/27 04:44:51;;;;;;;37.00;35.10;;;;;;;;;;4197730;28;20063;-62
2024/01/27 04:46:53;;;;;;;40.33;38.40;;;;;;;;;;4197682;28;20417;-62
2024/01/27 04:48:55;;;;;;;42.70;40.60;;;;;;;;;;4210025;28;20473;-62
2024/01/27 04:50:57;;;;;;;39.20;37.45;;;;;;;;;;4214401;28;20040;-62
2024/01/27 04:52:58;;;;;;;38.63;36.73;;;;;;;;;;4214302;28;20079;-62
2024/01/27 04:55:00;;;;;;;41.30;39.50;;;;;;;;;;4214378;28;20079;-62
2024/01/27 04:57:02;;;;;;;41.80;39.70;;;;;;;;;;4214289;28;20059;-62
2024/01/27 04:59:03;;;;;;;41.60;39.47;;;;;;;;;;4214559;28;20290;-62
2024/01/27 05:01:06;;;;;;;41.35;39.15;;;;;;;;;;4214248;28;20467;-62
2024/01/27 05:03:13;;;;;;;39.17;37.45;;;;;;;;;;4214089;28;20043;-62
2024/01/27 05:05:15;;;;;;;41.53;39.53;;;;;;;;;;4214078;28;20047;-62
2024/01/27 05:07:17;;;;;;;40.30;38.27;;;;;;;;;;4214459;28;20039;-64
2024/01/27 05:09:21;;;;;;;38.85;37.05;;;;;;;;;;4212472;28;20282;-64
2024/01/27 05:11:29;;;;;;;41.28;38.97;;;;;;;;;;4214162;28;20050;-64
2024/01/27 05:13:31;;;;;;;42.20;39.92;;;;;;;;;;4214465;28;20044;-64
2024/01/27 05:15:32;;;;;;;37.30;35.53;;;;;;;;;;4214532;28;20044;-64
2024/01/27 05:17:34;;;;;;;39.72;37.78;;;;;;;;;;4214181;28;20312;-64
2024/01/27 05:19:36;;;;;;;41.37;39.37;;;;;;;;;;4214089;28;20040;-64
2024/01/27 05:21:38;;;;;;;41.10;39.10;;;;;;;;;;4214055;28;20321;-64
2024/01/27 05:23:39;;;;;;;42.33;40.08;;;;;;;;;;4213963;28;20042;-64
2024/01/27 05:25:41;;;;;;;39.70;37.55;;;;;;;;;;4213970;28;20036;-64
2024/01/27 05:27:43;;;;;;;42.72;40.35;;;;;;;;;;4214232;28;20558;-62
2024/01/27 05:29:44;;;;;;;41.87;39.67;;;;;;;;;;4214175;28;20448;-62
2024/01/27 05:31:46;;;;;;;39.80;37.70;;;;;;;;;;4214122;28;20278;-62
2024/01/27 05:33:48;;;;;;;39.67;37.70;;;;;;;;;;4213799;28;20506;-62
2024/01/27 05:35:50;;;;;;;41.97;39.58;;;;;;;;;;4213858;28;20040;-61
2024/01/27 05:37:51;;;;;;;43.83;41.30;;;;;;;;;;4213763;28;20040;-62
2024/01/27 05:39:53;;;;;;;43.17;40.97;;;;;;;;;;4213800;28;20036;-62
2024/01/27 05:41:55;;;;;;;44.53;41.97;;;;;;;;;;4213446;28;20044;-62
2024/01/27 05:43:57;;;;;;;44.83;42.33;;;;;;;;;;4213327;28;20032;-62
2024/01/27 05:45:59;;;;;;;43.83;41.65;;;;;;;;;;4213682;28;20085;-62
2024/01/27 05:48:00;;;;;;;42.40;39.95;;;;;;;;;;4213392;28;20085;-61
2024/01/27 05:50:03;;;;;;;40.87;38.83;;;;;;;;;;4213704;28;20515;-62
2024/01/27 05:52:04;;;;;;;43.70;41.47;;;;;;;;;;4213608;28;20035;-62
2024/01/27 05:54:06;;;;;;;42.38;40.17;;;;;;;;;;4213708;28;20098;-62
2024/01/27 05:56:11;;;;;;;44.80;42.42;;;;;;;;;;4213742;28;20044;-62
2024/01/27 05:58:12;;;;;;;42.60;40.25;;;;;;;;;;4213680;28;20052;-62
2024/01/27 06:00:14;;;;;;;43.07;40.67;;;;;;;;;;4213677;28;20051;-62
2024/01/27 06:02:17;;;;;;;42.10;39.67;;;;;;;;;;4213613;28;20495;-62
2024/01/27 06:04:19;;;;;;;44.72;42.42;;;;;;;;;;4213519;28;20094;-62
2024/01/27 06:06:21;;;;;;;44.77;42.27;;;;;;;;;;4213847;28;20119;-61
2024/01/27 06:08:23;;;;;;;42.08;40.03;;;;;;;;;;4212367;28;20036;-63
2024/01/27 06:10:24;;;;;;;45.28;42.88;;;;;;;;;;4213437;28;20085;-62
2024/01/27 06:12:26;;;;;;;44.90;42.53;;;;;;;;;;4213539;28;20496;-62
2024/01/27 06:14:28;;;;;;;43.58;41.13;;;;;;;;;;4213871;28;20071;-61
2024/01/27 06:16:29;;;;;;;40.90;38.83;;;;;;;;;;4213521;28;20044;-61
2024/01/27 06:18:31;;;;;;;42.33;40.08;;;;;;;;;;4213722;28;20086;-61
2024/01/27 06:20:33;;;;;;;42.58;40.58;;;;;;;;;;4213474;28;20090;-61
2024/01/27 06:22:35;;;;;;;44.20;41.90;;;;;;;;;;4216858;28;20054;-62
2024/01/27 06:24:41;;;;;;;44.47;42.17;;;;;;;;;;4217035;28;20124;-61
2024/01/27 06:26:42;;;;;;;44.75;42.35;;;;;;;;;;4216824;28;20044;-62
2024/01/27 06:28:45;;;;;;;43.33;41.13;;;;;;;;;;4215525;28;20122;-62
2024/01/27 06:30:47;;;;;;;41.58;39.50;;;;;;;;;;4212965;28;20063;-62
2024/01/27 06:32:49;;;;;;;44.50;42.10;;;;;;;;;;4202502;28;20044;-61
2024/01/27 06:34:50;;;;;;;42.28;40.10;;;;;;;;;;4199615;28;20415;-61
2024/01/27 06:36:52;;;;;;;44.28;41.75;;;;;;;;;;4199686;28;20060;-61
2024/01/27 06:38:54;;;;;;;41.83;39.65;;;;;;;;;;4199679;28;20131;-62
2024/01/27 06:40:56;;;;;;;43.65;41.08;;;;;;;;;;4199265;28;20040;-62
2024/01/27 06:42:57;;;;;;;43.80;41.60;;;;;;;;;;4199594;28;20053;-61
2024/01/27 06:45:02;;;;;;;46.55;43.55;;;;;;;;;;4211357;28;20066;-61
2024/01/27 06:47:04;;;;;;;44.25;41.83;;;;;;;;;;4216299;28;20048;-61
2024/01/27 06:49:06;;;;;;;48.10;44.80;;;;;;;;;;4216150;28;20036;-62
2024/01/27 06:51:08;;;;;;;44.90;42.27;;;;;;;;;;4216403;28;20036;-61
2024/01/27 06:53:10;;;;;;;43.88;41.63;;;;;;;;;;4216294;28;20840;-61
2024/01/27 06:55:12;;;;;;;43.03;40.97;;;;;;;;;;4216147;28;20430;-62
2024/01/27 06:57:20;;;;;;;44.30;41.85;;;;;;;;;;4216126;28;20050;-61
2024/01/27 06:59:22;;;;;;;44.38;41.97;;;;;;;;;;4214122;28;20048;-62
2024/01/27 07:01:24;;;;;;;44.85;42.15;;;;;;;;;;4199436;28;20571;-61
2024/01/27 07:03:26;;;;;;;43.40;40.97;;;;;;;;;;4199465;28;20568;-62
2024/01/27 07:05:28;;;;;;;41.43;39.37;;;;;;;;;;4198037;28;20083;-62
2024/01/27 07:07:30;;;;;;;44.67;42.22;;;;;;;;;;4199606;28;20286;-62
2024/01/27 07:09:31;;;;;;;43.20;40.80;;;;;;;;;;4199319;28;20107;-61
2024/01/27 07:11:33;;;;;;;44.38;41.83;;;;;;;;;;4199239;28;20040;-61
2024/01/27 07:13:35;;;;;;;42.53;40.42;;;;;;;;;;4199315;28;20094;-62
2024/01/27 07:15:37;;;;;;;45.38;42.90;;;;;;;;;;4199073;28;20584;-61
2024/01/27 07:17:39;;;;;;;42.03;39.83;;;;;;;;;;4199009;28;20044;-61
2024/01/27 07:19:41;;;;;;;42.47;40.17;;;;;;;;;;4199214;28;20094;-61
2024/01/27 07:21:43;;;;;;;44.67;42.08;;;;;;;;;;4209475;28;20052;-62
2024/01/27 07:23:44;;;;;;;45.30;42.93;;;;;;;;;;4200191;28;20056;-66
2024/01/27 07:25:46;;;;;;;43.43;41.13;;;;;;;;;;4208544;28;20033;-66
2024/01/27 07:27:48;;;;;;;43.03;40.92;;;;;;;;;;4215653;28;20036;-65
2024/01/27 07:29:49;;;;;;;42.43;40.20;;;;;;;;;;4209573;28;20609;-65
2024/01/27 07:31:51;;;;;;;42.40;40.30;;;;;;;;;;4207347;28;20294;-66
2024/01/27 07:33:53;;;;;;;44.27;41.97;;;;;;;;;;4212363;28;20527;-65
2024/01/27 07:35:54;;;;;;;44.55;42.22;;;;;;;;;;4215566;28;20048;-66
2024/01/27 07:37:56;;;;;;;42.85;40.47;;;;;;;;;;4215040;28;20043;-65
2024/01/27 07:39:58;;;;;;;41.50;39.60;;;;;;;;;;4215317;28;20044;-65
2024/01/27 07:41:59;;;;;;;42.35;40.15;;;;;;;;;;4214057;28;20407;-65
2024/01/27 07:44:10;;;;;;;43.47;41.37;;;;;;;;;;4205304;28;20080;-66
2024/01/27 07:46:12;;;;;;;44.22;42.03;;;;;;;;;;4204817;28;20060;-66
2024/01/27 07:48:14;;;;;;;43.67;41.47;;;;;;;;;;4215022;28;20047;-73
2024/01/27 07:50:16;;;;;;;43.38;40.88;;;;;;;;;;4215277;28;20040;-73
2024/01/27 07:52:18;;;;;;;44.75;42.50;;;;;;;;;;4215278;28;20063;-76
2024/01/27 07:54:20;;;;;;;44.80;42.58;;;;;;;;;;4213723;28;20044;-73
2024/01/27 07:56:21;;;;;;;45.80;43.50;;;;;;;;;;4215010;28;20044;-75
2024/01/27 07:58:23;;;;;;;45.25;42.60;;;;;;;;;;4208225;28;20051;-75
2024/01/27 08:00:25;;;;;;;44.80;42.45;;;;;;;;;;4211532;28;20044;-74
2024/01/27 08:02:26;;;;;;;43.92;41.63;;;;;;;;;;4214927;28;20044;-75
2024/01/27 08:04:28;;;;;;;42.20;39.97;;;;;;;;;;4212015;28;20036;-75
2024/01/27 08:06:30;;;;;;;42.28;40.30;;;;;;;;;;4213839;28;20071;-74
2024/01/27 08:08:32;;;;;;;42.85;40.72;;;;;;;;;;4212455;28;20036;-73
2024/01/27 08:10:34;;;;;;;43.40;41.33;;;;;;;;;;4214859;28;20057;-74
2024/01/27 08:12:36;;;;;;;41.90;39.80;;;;;;;;;;4215006;28;20504;-75
2024/01/27 08:14:38;;;;;;;42.30;39.90;;;;;;;;;;4213870;28;20098;-74
2024/01/27 08:16:39;;;;;;;54.92;50.83;;;;;;;;;;4214895;28;20286;-73
2024/01/27 08:18:43;;;;;;;52.90;49.70;;;;;;;;;;4214814;28;20483;-74
2024/01/27 08:20:45;;;;;;;46.60;43.70;;;;;;;;;;4215081;28;20048;-74
2024/01/27 08:22:51;;;;;;;47.33;44.28;;;;;;;;;;4214805;28;20089;-74
2024/01/27 08:24:52;;;;;;;42.72;40.50;;;;;;;;;;4208330;28;20427;-75
2024/01/27 08:26:54;;;;;;;45.30;42.85;;;;;;;;;;4210257;28;20480;-74
2024/01/27 08:28:56;;;;;;;45.13;42.60;;;;;;;;;;4207549;28;20438;-74
2024/01/27 08:30:59;;;;;;;44.08;41.80;;;;;;;;;;4212946;28;20040;-75
2024/01/27 08:33:01;;;;;;;43.83;41.53;;;;;;;;;;4211039;28;20124;-74
2024/01/27 08:35:03;;;;;;;45.22;42.67;;;;;;;;;;4208506;28;20051;-75
2024/01/27 08:37:14;;;;;;;44.53;42.28;;;;;;;;;;4211534;28;20043;-74
2024/01/27 08:39:16;;;;;;;45.38;43.00;;;;;;;;;;4213864;28;20064;-75
2024/01/27 08:41:18;;;;;;;43.10;40.95;;;;;;;;;;4213851;28;20074;-74
2024/01/27 08:43:19;;;;;;;44.83;42.13;;;;;;;;;;4213510;28;20064;-74
2024/01/27 08:45:21;;;;;;;42.80;40.60;;;;;;;;;;4213726;28;20397;-75
2024/01/27 08:47:26;;;;;;;44.88;42.58;;;;;;;;;;4213875;28;20119;-66
2024/01/27 08:49:27;;;;;;;44.35;41.85;;;;;;;;;;4213951;28;20044;-66
2024/01/27 08:51:29;;;;;;;45.42;42.97;;;;;;;;;;4214338;28;20123;-65
2024/01/27 08:53:31;;;;;;;47.38;44.20;;;;;;;;;;4214605;28;20043;-65
2024/01/27 08:55:33;;;;;;;45.58;42.72;;;;;;;;;;4214272;28;20127;-65
2024/01/27 08:57:37;;;;;;;45.87;43.10;;;;;;;;;;4214387;28;20155;-65
2024/01/27 08:59:39;;;;;;;45.08;42.47;;;;;;;;;;4213179;28;20032;-74
2024/01/27 09:01:41;;;;;;;44.03;41.60;;;;;;;;;;4214177;28;20409;-75
2024/01/27 09:03:43;;;;;;;;;;;;;;;;;;4213401;28;20048;-75
2024/01/27 09:05:45;;;;;;;44.30;42.08;;;;;;;;;;4214192;28;19946;-75
2024/01/27 09:07:47;;;;;;;45.28;42.80;;;;;;;;;;4214118;28;20036;-75
2024/01/27 09:09:48;;;;;;;46.38;43.90;;;;;;;;;;4214192;28;20406;-75
2024/01/27 09:11:50;;;;;;;44.42;41.75;;;;;;;;;;4214328;28;20047;-75
2024/01/27 09:13:52;;;;;;;42.70;40.50;;;;;;;;;;4214121;28;20043;-75
2024/01/27 09:15:53;;;;;;;43.38;41.15;;;;;;;;;;4214100;28;20044;-73
2024/01/27 09:17:55;;;;;;;44.25;41.88;;;;;;;;;;4213942;28;20040;-74
2024/01/27 09:19:57;;;;;;;45.95;43.53;;;;;;;;;;4213922;28;20051;-74
2024/01/27 09:21:59;;;;;;;41.58;39.33;;;;;;;;;;4214107;28;20046;-75
2024/01/27 09:24:02;;;;;;;47.23;44.73;;;;;;;;;;4213847;28;20040;-74
2024/01/27 09:26:05;;;;;;;46.40;44.03;;;;;;;;;;4213815;28;20284;-75
2024/01/27 09:28:06;;;;;;;43.60;41.30;;;;;;;;;;4213800;28;20109;-75
2024/01/27 09:30:08;;;;;;;44.03;41.43;;;;;;;;;;4202589;28;20032;-75
2024/01/27 09:32:11;;;;;;;43.85;41.38;;;;;;;;;;4197099;28;20048;-75
2024/01/27 09:34:12;;;;;;;49.22;46.08;;;;;;;;;;4212685;28;20086;-74
2024/01/27 09:36:14;;;;;;;44.78;42.33;;;;;;;;;;4213890;28;20511;-75
2024/01/27 09:38:16;;;;;;;45.05;42.65;;;;;;;;;;4213570;28;20082;-75
2024/01/27 09:40:18;;;;;;;44.33;42.05;;;;;;;;;;4213501;28;20040;-74
2024/01/27 09:42:21;;;;;;;43.45;41.13;;;;;;;;;;4212614;28;20082;-75
2024/01/27 09:44:23;;;;;;;47.10;44.30;;;;;;;;;;4213675;28;20094;-73
2024/01/27 09:46:25;;;;;;;;;;;;;;;;;;4214056;28;20047;-73
2024/01/27 09:48:27;;;;;;;43.50;41.22;;;;;;;;;;4213474;28;19920;-75
2024/01/27 09:50:29;;;;;;;45.40;42.90;;;;;;;;;;4212303;28;20036;-74
2024/01/27 09:52:31;;;;;;;41.63;39.57;;;;;;;;;;4213957;28;20070;-75
2024/01/27 09:54:32;;;;;;;41.40;39.22;;;;;;;;;;4213636;28;20481;-75
2024/01/27 09:56:34;;;;;;;42.10;39.70;;;;;;;;;;4217189;28;20039;-75
2024/01/27 09:58:37;;;;;;;44.67;42.08;;;;;;;;;;4217095;28;20344;-75
2024/01/27 10:00:39;;;;;;;42.77;40.47;;;;;;;;;;4217121;28;20063;-76
2024/01/27 10:02:41;;;;;;;39.75;37.83;;;;;;;;;;4217202;28;20619;-75
2024/01/27 10:04:43;;;;;;;39.05;37.17;;;;;;;;;;4217289;28;20044;-75
2024/01/27 10:06:47;;;;;;;39.83;37.67;;;;;;;;;;4217203;28;20139;-75
2024/01/27 10:08:53;;;;;;;41.70;39.72;;;;;;;;;;4217080;28;20040;-75
2024/01/27 10:10:58;;;;;;;41.50;39.08;;;;;;;;;;4216358;28;20115;-75
2024/01/27 10:13:01;;;;;;;39.88;37.80;;;;;;;;;;4216286;28;20407;-75
2024/01/27 10:15:03;;;;;;;39.05;37.20;;;;;;;;;;4215110;28;20044;-75
2024/01/27 10:17:05;;;;;;;41.90;39.90;;;;;;;;;;4215720;28;20050;-76
2024/01/27 10:19:09;;;;;;;39.03;36.92;;;;;;;;;;4216957;28;20082;-75
2024/01/27 10:21:15;;;;;;;40.00;38.00;;;;;;;;;;4216569;28;20040;-76
2024/01/27 10:23:16;;;;;;;41.42;39.08;;;;;;;;;;4216198;28;20120;-76
2024/01/27 10:25:18;;;;;;;40.60;38.40;;;;;;;;;;4214865;28;20701;-75
2024/01/27 10:27:20;;;;;;;40.70;38.50;;;;;;;;;;4214446;28;20032;-76
2024/01/27 10:29:21;;;;;;;40.13;37.95;;;;;;;;;;4214920;28;20422;-76
2024/01/27 10:31:26;;;;;;;37.67;35.77;;;;;;;;;;4215480;28;20032;-76
2024/01/27 10:33:31;;;;;;;37.53;35.63;;;;;;;;;;4215150;28;20028;-77
2024/01/27 10:35:33;;;;;;;39.00;36.95;;;;;;;;;;4214856;28;20575;-76
2024/01/27 10:37:35;;;;;;;39.30;37.30;;;;;;;;;;4215313;28;20044;-76
2024/01/27 10:39:37;;;;;;;35.67;33.92;;;;;;;;;;4215169;28;20050;-76
2024/01/27 10:41:39;;;;;;;39.65;37.15;;;;;;;;;;4216210;28;20039;-76
2024/01/27 10:43:41;;;;;;;44.40;41.13;;;;;;;;;;4215667;28;20499;-76
2024/01/27 10:45:44;;;;;;;46.67;43.40;;;;;;;;;;4215535;28;20032;-77
2024/01/27 10:47:47;;;;;;;54.92;50.33;;;;;;;;;;4215228;28;20044;-77
2024/01/27 10:49:50;;;;;;;51.03;46.67;;;;;;;;;;4215201;28;20044;-76
2024/01/27 10:51:55;;;;;;;37.83;35.50;;;;;;;;;;4214264;28;20036;-77
2024/01/27 10:54:04;;;;;;;33.33;31.58;;;;;;;;;;4216143;28;20568;-77
2024/01/27 10:56:09;;;;;;;30.50;29.10;;;;;;;;;;4216085;28;20040;-77
2024/01/27 10:58:12;;;;;;;31.33;29.83;;;;;;;;;;4216218;28;20685;-77
2024/01/27 11:00:14;;;;;;;31.73;29.83;;;;;;;;;;4215136;28;20052;-77
2024/01/27 11:02:17;;;;;;;24.88;23.45;;;;;;;;;;4215973;28;20040;-77
2024/01/27 11:04:22;;;;;;;27.35;24.95;;;;;;;;;;4214830;28;20044;-76
2024/01/27 11:06:24;;;;;;;22.02;20.83;;;;;;;;;;4213187;28;20056;-78
2024/01/27 11:08:27;;;;;;;24.63;22.50;;;;;;;;;;4214924;28;20036;-76
2024/01/27 11:10:35;;;;;;;25.15;23.15;;;;;;;;;;4215518;28;20036;-78
2024/01/27 11:12:36;;;;;;;23.95;22.35;;;;;;;;;;4214304;28;20636;-76
2024/01/27 11:14:38;;;;;;;25.42;23.85;;;;;;;;;;4214418;28;20119;-76
2024/01/27 11:16:45;;;;;;;23.92;22.23;;;;;;;;;;4215378;28;20063;-76
2024/01/27 11:18:48;;;;;;;23.48;21.40;;;;;;;;;;4215663;28;20032;-78
2024/01/27 11:20:53;;;;;;;22.45;20.83;;;;;;;;;;4214229;28;20480;-77
2024/01/27 11:22:57;;;;;;;21.02;19.30;;;;;;;;;;4208814;28;20451;-77
2024/01/27 11:25:11;;;;;;;22.70;20.45;;;;;;;;;;4212415;28;20040;-76
2024/01/27 11:27:13;;;;;;;18.73;17.05;;;;;;;;;;4212280;28;20488;-77
2024/01/27 11:29:21;;;;;;;18.35;16.90;;;;;;;;;;4212280;28;20039;-77
2024/01/27 11:31:23;;;;;;;18.08;16.33;;;;;;;;;;4214509;28;20039;-77
2024/01/27 11:33:25;;;;;;;11.03;10.37;;;;;;;;;;4213862;28;20045;-77
2024/01/27 11:35:27;;;;;;;12.73;11.60;;;;;;;;;;4210967;28;20044;-77
2024/01/27 11:37:30;;;;;;;12.98;12.07;;;;;;;;;;4215432;28;20047;-77
2024/01/27 11:39:32;;;;;;;15.80;14.73;;;;;;;;;;4214990;28;20051;-77
2024/01/27 11:41:33;;;;;;;16.08;14.63;;;;;;;;;;4215172;28;20128;-77
2024/01/27 11:43:35;;;;;;;15.00;13.97;;;;;;;;;;4204848;28;20040;-77
2024/01/27 11:45:37;;;;;;;10.93;10.27;;;;;;;;;;4214643;28;20450;-77
2024/01/27 11:47:40;;;;;;;10.38;9.82;;;;;;;;;;4214013;28;20071;-77
2024/01/27 11:49:54;;;;;;;11.63;10.95;;;;;;;;;;4215644;28;20086;-77
2024/01/27 11:51:57;;;;;;;6.55;6.32;;;;;;;;;;4215147;28;20050;-77
2024/01/27 11:53:58;;;;;;;6.85;6.55;;;;;;;;;;4214847;28;20032;-78